createdAt,value
2018-05-15T00:00:32.722Z,966.59
2018-05-15T00:01:32.709Z,966.63
2018-05-15T00:02:32.702Z,966.61
2018-05-15T00:03:32.695Z,966.64
2018-05-15T00:04:32.683Z,966.60
2018-05-15T00:05:32.674Z,966.63
2018-05-15T00:06:32.663Z,966.63
2018-05-15T00:07:32.651Z,966.63
2018-05-15T00:08:32.648Z,966.65
2018-05-15T00:09:32.638Z,966.64
2018-05-15T00:10:32.624Z,966.66
2018-05-15T00:11:32.613Z,966.65
2018-05-15T00:12:32.605Z,966.63
2018-05-15T00:13:32.597Z,966.61
2018-05-15T00:14:32.585Z,966.59
2018-05-15T00:15:32.579Z,966.58
2018-05-15T00:16:32.569Z,966.62
2018-05-15T00:17:32.557Z,966.64
2018-05-15T00:18:32.550Z,966.60
2018-05-15T00:19:32.535Z,966.61
2018-05-15T00:20:32.530Z,966.62
2018-05-15T00:21:32.528Z,966.62
2018-05-15T00:22:32.511Z,966.58
2018-05-15T00:23:32.500Z,966.57
2018-05-15T00:24:32.494Z,966.55
2018-05-15T00:25:32.481Z,966.57
2018-05-15T00:26:32.471Z,966.53
2018-05-15T00:27:32.461Z,966.52
2018-05-15T00:28:32.454Z,966.52
2018-05-15T00:29:32.442Z,966.52
2018-05-15T00:30:32.434Z,966.52
2018-05-15T00:31:32.423Z,966.52
2018-05-15T00:32:32.419Z,966.51
2018-05-15T00:33:32.406Z,966.52
2018-05-15T00:34:32.394Z,966.49
2018-05-15T00:35:32.384Z,966.48
2018-05-15T00:36:32.374Z,966.55
2018-05-15T00:37:32.363Z,966.54
2018-05-15T00:38:32.357Z,966.54
2018-05-15T00:39:32.345Z,966.56
2018-05-15T00:40:32.337Z,966.58
2018-05-15T00:41:32.326Z,966.57
2018-05-15T00:42:32.319Z,966.58
2018-05-15T00:43:32.309Z,966.56
2018-05-15T00:44:32.301Z,966.53
2018-05-15T00:45:32.287Z,966.55
2018-05-15T00:46:32.279Z,966.53
2018-05-15T00:47:32.267Z,966.53
2018-05-15T00:48:32.258Z,966.52
2018-05-15T00:49:32.253Z,966.51
2018-05-15T00:50:32.240Z,966.48
2018-05-15T00:51:32.229Z,966.49
2018-05-15T00:52:32.218Z,966.49
2018-05-15T00:53:32.212Z,966.51
2018-05-15T00:54:32.212Z,966.49
2018-05-15T00:55:32.191Z,966.51
2018-05-15T00:56:32.183Z,966.49
2018-05-15T00:57:32.169Z,966.51
2018-05-15T00:58:32.159Z,966.49
2018-05-15T00:59:32.149Z,966.49
2018-05-15T01:00:32.144Z,966.48
2018-05-15T01:01:32.131Z,966.40
2018-05-15T01:02:32.123Z,966.38
2018-05-15T01:03:32.117Z,966.36
2018-05-15T01:05:32.082Z,966.35
2018-05-15T01:06:32.073Z,966.34
2018-05-15T01:07:32.062Z,966.37
2018-05-15T01:08:32.052Z,966.32
2018-05-15T01:09:32.049Z,966.34
2018-05-15T01:10:32.039Z,966.35
2018-05-15T01:11:32.028Z,966.37
2018-05-15T01:12:32.017Z,966.34
2018-05-15T01:13:32.002Z,966.36
2018-05-15T01:14:32.002Z,966.36
2018-05-15T01:15:31.988Z,966.33
2018-05-15T01:16:31.979Z,966.36
2018-05-15T01:17:31.965Z,966.36
2018-05-15T01:18:31.957Z,966.33
2018-05-15T01:19:31.946Z,966.31
2018-05-15T01:20:31.936Z,966.30
2018-05-15T01:21:31.927Z,966.31
2018-05-15T01:22:31.921Z,966.27
2018-05-15T01:23:31.910Z,966.23
2018-05-15T01:24:31.906Z,966.17
2018-05-15T01:25:31.889Z,966.14
2018-05-15T01:26:31.876Z,966.10
2018-05-15T01:27:31.867Z,966.08
2018-05-15T01:28:31.855Z,966.08
2018-05-15T01:29:31.850Z,966.06
2018-05-15T01:30:31.836Z,966.05
2018-05-15T01:31:31.826Z,966.04
2018-05-15T01:32:31.820Z,966.10
2018-05-15T01:33:31.807Z,966.09
2018-05-15T01:34:31.800Z,966.10
2018-05-15T01:35:31.804Z,966.12
2018-05-15T01:36:31.778Z,966.18
2018-05-15T01:37:31.771Z,966.22
2018-05-15T01:38:31.756Z,966.23
2018-05-15T01:39:31.752Z,966.24
2018-05-15T01:40:31.794Z,966.26
2018-05-15T01:41:31.731Z,966.28
2018-05-15T01:42:31.716Z,966.29
2018-05-15T01:43:31.708Z,966.28
2018-05-15T01:44:31.697Z,966.29
2018-05-15T01:45:31.692Z,966.28
2018-05-15T01:46:31.685Z,966.29
2018-05-15T01:47:31.673Z,966.30
2018-05-15T01:48:31.658Z,966.31
2018-05-15T01:49:31.647Z,966.31
2018-05-15T01:50:31.856Z,966.33
2018-05-15T01:51:31.632Z,966.34
2018-05-15T01:52:31.618Z,966.35
2018-05-15T01:53:31.662Z,966.38
2018-05-15T01:54:31.596Z,966.40
2018-05-15T01:55:31.592Z,966.39
2018-05-15T01:56:31.579Z,966.38
2018-05-15T01:57:31.567Z,966.39
2018-05-15T01:58:31.558Z,966.41
2018-05-15T01:59:31.545Z,966.44
2018-05-15T02:00:31.537Z,966.45
2018-05-15T02:01:31.532Z,966.42
2018-05-15T02:02:31.529Z,966.43
2018-05-15T02:03:31.511Z,966.42
2018-05-15T02:04:31.504Z,966.46
2018-05-15T02:05:31.489Z,966.50
2018-05-15T02:06:31.480Z,966.48
2018-05-15T02:07:31.466Z,966.48
2018-05-15T02:08:31.463Z,966.53
2018-05-15T02:09:31.454Z,966.47
2018-05-15T02:10:31.442Z,966.50
2018-05-15T02:11:31.425Z,966.46
2018-05-15T02:12:31.416Z,966.46
2018-05-15T02:13:31.407Z,966.46
2018-05-15T02:14:31.407Z,966.41
2018-05-15T02:15:31.385Z,966.41
2018-05-15T02:16:31.378Z,966.45
2018-05-15T02:17:31.371Z,966.42
2018-05-15T02:18:31.358Z,966.38
2018-05-15T02:19:31.347Z,966.41
2018-05-15T02:20:31.343Z,966.41
2018-05-15T02:21:31.330Z,966.39
2018-05-15T02:22:31.323Z,966.37
2018-05-15T02:23:31.312Z,966.35
2018-05-15T02:24:31.298Z,966.34
2018-05-15T02:25:31.287Z,966.33
2018-05-15T02:26:31.276Z,966.36
2018-05-15T02:27:31.268Z,966.31
2018-05-15T02:28:31.260Z,966.27
2018-05-15T02:29:31.248Z,966.29
2018-05-15T02:30:31.291Z,966.24
2018-05-15T02:31:31.230Z,966.22
2018-05-15T02:32:31.219Z,966.23
2018-05-15T02:33:31.215Z,966.29
2018-05-15T02:34:31.200Z,966.29
2018-05-15T02:35:31.191Z,966.32
2018-05-15T02:36:31.191Z,966.31
2018-05-15T02:37:31.187Z,966.34
2018-05-15T02:38:31.159Z,966.31
2018-05-15T02:39:31.153Z,966.32
2018-05-15T02:40:31.149Z,966.33
2018-05-15T02:41:31.137Z,966.37
2018-05-15T02:42:31.123Z,966.33
2018-05-15T02:43:31.109Z,966.36
2018-05-15T02:44:31.104Z,966.38
2018-05-15T02:45:31.099Z,966.36
2018-05-15T02:46:31.081Z,966.40
2018-05-15T02:47:31.069Z,966.36
2018-05-15T02:48:31.068Z,966.35
2018-05-15T02:49:31.053Z,966.39
2018-05-15T02:50:31.042Z,966.41
2018-05-15T02:51:31.031Z,966.36
2018-05-15T02:52:31.025Z,966.42
2018-05-15T02:53:31.015Z,966.39
2018-05-15T02:54:31.005Z,966.41
2018-05-15T02:55:31.000Z,966.38
2018-05-15T02:56:30.995Z,966.39
2018-05-15T02:57:30.980Z,966.40
2018-05-15T02:58:30.968Z,966.38
2018-05-15T02:59:30.956Z,966.42
2018-05-15T03:00:30.946Z,966.45
2018-05-15T03:01:30.934Z,966.47
2018-05-15T03:02:30.921Z,966.47
2018-05-15T03:03:30.918Z,966.46
2018-05-15T03:04:30.907Z,966.51
2018-05-15T04:50:30.308Z,966.95
2018-05-15T04:51:30.234Z,966.98
2018-05-15T04:52:30.226Z,966.99
2018-05-15T04:53:30.221Z,966.97
2018-05-15T04:54:30.215Z,966.95
2018-05-15T04:55:30.208Z,966.96
2018-05-15T04:56:30.195Z,966.98
2018-05-15T04:57:30.177Z,967.00
2018-05-15T04:58:30.193Z,966.99
2018-05-15T04:59:30.167Z,967.02
2018-05-15T05:03:01.460Z,967.04
2018-05-15T05:04:00.841Z,967.02
2018-05-15T05:05:00.841Z,967.03
2018-05-15T05:06:00.834Z,966.96
2018-05-15T05:07:00.814Z,966.97
2018-05-15T05:08:00.805Z,967.03
2018-05-15T05:09:00.798Z,967.03
2018-05-15T05:10:00.786Z,967.05
2018-05-15T05:11:00.781Z,967.10
2018-05-15T05:12:00.770Z,967.09
2018-05-15T05:13:00.758Z,967.09
2018-05-15T05:14:00.754Z,967.07
2018-05-15T05:15:00.747Z,967.11
2018-05-15T05:16:00.729Z,967.10
2018-05-15T05:17:00.764Z,967.10
2018-05-15T05:18:00.790Z,967.10
2018-05-15T05:19:00.701Z,967.13
2018-05-15T05:20:00.700Z,967.15
2018-05-15T05:21:00.736Z,967.15
2018-05-15T05:22:00.677Z,967.13
2018-05-15T05:23:00.663Z,967.16
2018-05-15T05:24:00.655Z,967.18
2018-05-15T05:25:00.648Z,967.20
2018-05-15T05:26:00.648Z,967.20
2018-05-15T05:27:00.629Z,967.21
2018-05-15T05:28:00.618Z,967.22
2018-05-15T05:29:00.606Z,967.22
2018-05-15T05:30:53.040Z,967.29
2018-05-15T05:31:53.085Z,967.28
2018-05-15T05:32:53.030Z,967.24
2018-05-15T05:33:53.018Z,967.30
2018-05-15T05:34:52.994Z,967.28
2018-05-15T05:35:52.986Z,967.31
2018-05-15T05:36:52.983Z,967.29
2018-05-15T05:37:52.966Z,967.26
2018-05-15T05:38:52.967Z,967.24
2018-05-15T05:39:52.953Z,967.19
2018-05-15T05:40:52.945Z,967.18
2018-05-15T05:41:52.940Z,967.17
2018-05-15T05:42:52.937Z,967.22
2018-05-15T05:43:52.923Z,967.20
2018-05-15T05:44:52.912Z,967.17
2018-05-15T05:45:52.908Z,967.19
2018-05-15T05:46:52.902Z,967.17
2018-05-15T05:47:52.895Z,967.18
2018-05-15T05:48:52.886Z,967.18
2018-05-15T05:49:52.887Z,967.12
2018-05-15T05:50:52.880Z,967.16
2018-05-15T05:51:52.910Z,967.16
2018-05-15T05:52:52.858Z,967.15
2018-05-15T05:53:52.852Z,967.22
2018-05-15T05:54:52.839Z,967.19
2018-05-15T05:55:52.826Z,967.20
2018-05-15T05:56:52.817Z,967.21
2018-05-15T05:57:52.807Z,967.24
2018-05-15T05:58:52.807Z,967.27
2018-05-15T05:59:52.797Z,967.29
2018-05-15T06:00:52.786Z,967.29
2018-05-15T06:01:52.774Z,967.38
2018-05-15T06:02:52.773Z,967.34
2018-05-15T06:03:52.762Z,967.37
2018-05-15T06:04:52.744Z,967.36
2018-05-15T06:05:52.737Z,967.38
2018-05-15T06:06:52.731Z,967.37
2018-05-15T06:07:52.717Z,967.36
2018-05-15T06:08:52.707Z,967.37
2018-05-15T06:09:52.701Z,967.37
2018-05-15T06:10:52.699Z,967.36
2018-05-15T06:11:52.683Z,967.35
2018-05-15T06:12:52.679Z,967.33
2018-05-15T06:13:52.664Z,967.32
2018-05-15T06:14:52.652Z,967.31
2018-05-15T06:15:52.646Z,967.25
2018-05-15T06:16:52.633Z,967.30
2018-05-15T06:17:52.623Z,967.26
2018-05-15T06:18:52.617Z,967.27
2018-05-15T06:19:52.612Z,967.29
2018-05-15T06:20:52.602Z,967.26
2018-05-15T06:21:52.589Z,967.26
2018-05-15T06:22:52.582Z,967.28
2018-05-15T06:23:52.570Z,967.27
2018-05-15T06:24:52.562Z,967.30
2018-05-15T06:25:52.550Z,967.27
2018-05-15T06:26:52.544Z,967.27
2018-05-15T06:27:52.529Z,967.27
2018-05-15T06:28:52.524Z,967.25
2018-05-15T06:29:52.517Z,967.22
2018-05-15T06:30:52.518Z,967.19
2018-05-15T06:31:52.495Z,967.18
2018-05-15T06:32:52.482Z,967.15
2018-05-15T06:33:52.473Z,967.16
2018-05-15T06:34:52.465Z,967.13
2018-05-15T06:35:52.456Z,967.16
2018-05-15T06:36:52.447Z,967.16
2018-05-15T06:37:52.444Z,967.14
2018-05-15T06:38:52.429Z,967.13
2018-05-15T06:39:52.424Z,967.14
2018-05-15T06:40:52.413Z,967.10
2018-05-15T06:41:52.396Z,967.11
2018-05-15T06:42:52.393Z,967.15
2018-05-15T06:43:52.382Z,967.16
2018-05-15T06:44:52.487Z,967.12
2018-05-15T06:45:52.361Z,967.11
2018-05-15T06:46:52.353Z,967.14
2018-05-15T06:47:52.347Z,967.10
2018-05-15T06:48:52.335Z,967.11
2018-05-15T06:49:52.321Z,967.18
2018-05-15T06:50:52.318Z,967.16
2018-05-15T06:51:52.304Z,967.13
2018-05-15T06:52:52.294Z,967.15
2018-05-15T06:53:52.286Z,967.15
2018-05-15T06:54:52.281Z,967.15
2018-05-15T06:55:52.275Z,967.20
2018-05-15T06:56:52.264Z,967.18
2018-05-15T06:57:52.248Z,967.23
2018-05-15T06:58:52.241Z,967.22
2018-05-15T06:59:52.232Z,967.22
2018-05-15T07:00:52.227Z,967.21
2018-05-15T07:01:52.226Z,967.21
2018-05-15T07:02:52.203Z,967.26
2018-05-15T07:03:52.195Z,967.24
2018-05-15T07:04:52.185Z,967.22
2018-05-15T07:05:52.180Z,967.23
2018-05-15T07:06:52.170Z,967.23
2018-05-15T07:07:52.168Z,967.27
2018-05-15T07:08:52.157Z,967.28
2018-05-15T07:09:52.145Z,967.27
2018-05-15T07:10:52.136Z,967.29
2018-05-15T07:11:52.128Z,967.29
2018-05-15T07:12:52.117Z,967.28
2018-05-15T07:13:52.105Z,967.27
2018-05-15T07:14:52.105Z,967.29
2018-05-15T07:15:52.096Z,967.30
2018-05-15T07:16:52.078Z,967.37
2018-05-15T07:17:52.073Z,967.32
2018-05-15T07:18:52.060Z,967.35
2018-05-15T07:19:52.053Z,967.36
2018-05-15T07:20:52.050Z,967.33
2018-05-15T07:21:52.034Z,967.35
2018-05-15T07:22:52.030Z,967.35
2018-05-15T07:23:52.018Z,967.37
2018-05-15T07:24:52.005Z,967.42
2018-05-15T07:25:52.004Z,967.36
2018-05-15T07:26:51.992Z,967.38
2018-05-15T07:27:51.986Z,967.36
2018-05-15T07:28:51.974Z,967.33
2018-05-15T07:29:51.969Z,967.35
2018-05-15T07:30:51.951Z,967.35
2018-05-15T07:31:51.950Z,967.36
2018-05-15T07:32:51.943Z,967.39
2018-05-15T07:33:51.925Z,967.38
2018-05-15T07:34:51.916Z,967.43
2018-05-15T07:35:51.912Z,967.41
2018-05-15T07:36:51.899Z,967.40
2018-05-15T07:37:51.889Z,967.35
2018-05-15T07:38:51.883Z,967.43
2018-05-15T07:39:51.871Z,967.39
2018-05-15T07:40:51.864Z,967.43
2018-05-15T07:41:51.855Z,967.47
2018-05-15T07:42:51.849Z,967.49
2018-05-15T07:43:51.837Z,967.52
2018-05-15T07:44:51.830Z,967.50
2018-05-15T07:45:51.820Z,967.51
2018-05-15T07:46:51.812Z,967.48
2018-05-15T07:47:51.800Z,967.49
2018-05-15T07:48:51.796Z,967.51
2018-05-15T07:49:51.782Z,967.50
2018-05-15T07:50:51.778Z,967.51
2018-05-15T07:51:51.767Z,967.55
2018-05-15T07:52:51.759Z,967.50
2018-05-15T07:53:51.747Z,967.48
2018-05-15T07:54:51.738Z,967.55
2018-05-15T07:55:51.739Z,967.51
2018-05-15T07:56:51.723Z,967.57
2018-05-15T07:57:51.713Z,967.58
2018-05-15T07:58:51.703Z,967.59
2018-05-15T07:59:51.693Z,967.60
2018-05-15T08:00:51.686Z,967.56
2018-05-15T08:01:51.676Z,967.53
2018-05-15T08:02:51.665Z,967.52
2018-05-15T08:03:51.658Z,967.53
2018-05-15T08:04:51.655Z,967.54
2018-05-15T08:05:51.640Z,967.54
2018-05-15T08:06:51.629Z,967.56
2018-05-15T08:07:51.622Z,967.57
2018-05-15T08:08:51.615Z,967.56
2018-05-15T08:09:51.602Z,967.55
2018-05-15T08:10:51.600Z,967.55
2018-05-15T08:11:51.584Z,967.54
2018-05-15T08:12:51.576Z,967.55
2018-05-15T08:13:51.567Z,967.54
2018-05-15T08:14:51.558Z,967.56
2018-05-15T08:15:51.554Z,967.58
2018-05-15T08:16:51.540Z,967.64
2018-05-15T08:17:51.536Z,967.67
2018-05-15T08:18:51.522Z,967.69
2018-05-15T08:19:51.520Z,967.68
2018-05-15T08:20:51.504Z,967.73
2018-05-15T08:21:51.498Z,967.76
2018-05-15T08:22:51.495Z,967.76
2018-05-15T08:23:51.485Z,967.77
2018-05-15T08:24:51.476Z,967.77
2018-05-15T08:25:51.467Z,967.80
2018-05-15T08:26:51.454Z,967.80
2018-05-15T08:27:51.446Z,967.78
2018-05-15T08:28:51.443Z,967.82
2018-05-15T08:29:51.435Z,967.87
2018-05-15T08:30:51.440Z,967.88
2018-05-15T08:31:51.411Z,967.95
2018-05-15T08:32:51.404Z,967.96
2018-05-15T08:33:51.394Z,967.92
2018-05-15T08:34:51.392Z,967.95
2018-05-15T08:35:51.379Z,967.96
2018-05-15T08:36:51.367Z,967.95
2018-05-15T08:37:51.360Z,967.90
2018-05-15T08:38:51.353Z,967.98
2018-05-15T08:39:51.349Z,967.94
2018-05-15T08:40:51.337Z,967.96
2018-05-15T08:41:51.325Z,967.93
2018-05-15T08:42:51.322Z,967.94
2018-05-15T08:43:51.309Z,967.96
2018-05-15T08:44:51.306Z,967.95
2018-05-15T08:45:51.293Z,967.93
2018-05-15T08:46:51.288Z,967.94
2018-05-15T08:47:51.280Z,967.92
2018-05-15T08:48:51.266Z,967.86
2018-05-15T08:49:51.262Z,967.91
2018-05-15T08:50:51.250Z,967.93
2018-05-15T08:51:51.242Z,967.94
2018-05-15T08:52:51.233Z,967.90
2018-05-15T08:53:51.230Z,967.93
2018-05-15T08:54:51.220Z,967.98
2018-05-15T08:55:51.209Z,967.97
2018-05-15T08:56:51.207Z,967.93
2018-05-15T08:57:51.195Z,967.95
2018-05-15T08:58:51.185Z,967.94
2018-05-15T08:59:51.176Z,967.93
2018-05-15T09:00:51.175Z,967.87
2018-05-15T09:01:51.166Z,967.87
2018-05-15T09:02:51.149Z,967.85
2018-05-15T09:03:51.146Z,967.85
2018-05-15T09:04:51.138Z,967.85
2018-05-15T09:05:51.134Z,967.85
2018-05-15T09:06:51.124Z,967.79
2018-05-15T09:07:51.110Z,967.79
2018-05-15T09:08:51.107Z,967.79
2018-05-15T09:09:51.097Z,967.76
2018-05-15T09:10:51.098Z,967.78
2018-05-15T09:11:51.085Z,967.78
2018-05-15T09:12:51.075Z,967.77
2018-05-15T09:13:51.065Z,967.79
2018-05-15T09:14:51.062Z,967.77
2018-05-15T09:15:51.052Z,967.76
2018-05-15T09:16:51.039Z,967.77
2018-05-15T09:17:51.039Z,967.77
2018-05-15T09:18:51.030Z,967.78
2018-05-15T09:19:51.018Z,967.75
2018-05-15T09:20:51.009Z,967.72
2018-05-15T09:21:51.000Z,967.69
2018-05-15T09:22:50.994Z,967.69
2018-05-15T09:23:50.985Z,967.67
2018-05-15T09:24:50.985Z,967.67
2018-05-15T09:25:50.976Z,967.70
2018-05-15T09:26:50.965Z,967.70
2018-05-15T09:27:50.958Z,967.77
2018-05-15T09:28:50.954Z,967.78
2018-05-15T09:29:50.947Z,967.76
2018-05-15T09:30:50.937Z,967.78
2018-05-15T09:31:50.929Z,967.80
2018-05-15T09:32:50.922Z,967.78
2018-05-15T09:33:50.920Z,967.76
2018-05-15T09:34:50.908Z,967.82
2018-05-15T09:35:50.904Z,967.78
2018-05-15T09:36:50.893Z,967.78
2018-05-15T09:37:50.899Z,967.77
2018-05-15T09:38:50.878Z,967.77
2018-05-15T09:39:50.875Z,967.85
2018-05-15T09:40:50.874Z,967.85
2018-05-15T09:41:50.861Z,967.85
2018-05-15T09:42:50.853Z,967.83
2018-05-15T09:43:50.844Z,967.80
2018-05-15T09:44:50.841Z,967.83
2018-05-15T09:45:50.837Z,967.83
2018-05-15T09:46:50.909Z,967.87
2018-05-15T09:47:50.817Z,967.82
2018-05-15T09:48:50.810Z,967.85
2018-05-15T09:49:50.809Z,967.87
2018-05-15T09:50:50.794Z,967.89
2018-05-15T09:51:50.786Z,967.85
2018-05-15T09:52:50.786Z,967.87
2018-05-15T09:53:50.775Z,967.90
2018-05-15T09:54:50.768Z,967.92
2018-05-15T09:55:50.761Z,967.96
2018-05-15T09:56:50.754Z,967.94
2018-05-15T09:57:50.745Z,967.93
2018-05-15T09:58:50.749Z,967.91
2018-05-15T09:59:50.734Z,967.86
2018-05-15T10:00:50.723Z,967.87
2018-05-15T10:01:50.720Z,967.80
2018-05-15T10:02:50.708Z,967.76
2018-05-15T10:03:50.702Z,967.74
2018-05-15T10:04:50.696Z,967.74
2018-05-15T10:05:50.687Z,967.69
2018-05-15T10:06:50.680Z,967.67
2018-05-15T10:07:50.689Z,967.62
2018-05-15T10:08:50.670Z,967.59
2018-05-15T10:09:50.658Z,967.59
2018-05-15T10:10:50.655Z,967.73
2018-05-15T10:11:50.653Z,967.76
2018-05-15T10:12:50.639Z,967.81
2018-05-15T10:13:50.631Z,967.85
2018-05-15T10:14:50.626Z,967.89
2018-05-15T10:15:50.620Z,967.95
2018-05-15T10:16:50.613Z,967.92
2018-05-15T10:17:50.608Z,967.97
2018-05-15T10:18:50.593Z,967.97
2018-05-15T10:19:50.646Z,967.97
2018-05-15T10:20:50.578Z,967.96
2018-05-15T10:21:50.576Z,967.94
2018-05-15T10:22:50.563Z,967.91
2018-05-15T10:23:50.555Z,967.87
2018-05-15T10:24:50.548Z,967.89
2018-05-15T10:25:50.543Z,967.89
2018-05-15T10:26:50.533Z,967.91
2018-05-15T10:27:50.523Z,967.96
2018-05-15T10:28:50.520Z,968.01
2018-05-15T10:29:50.516Z,968.06
2018-05-15T10:30:50.501Z,968.12
2018-05-15T10:31:50.492Z,968.09
2018-05-15T10:32:50.486Z,968.12
2018-05-15T10:33:50.481Z,968.12
2018-05-15T10:34:50.469Z,968.08
2018-05-15T10:35:50.463Z,968.09
2018-05-15T10:36:50.453Z,968.09
2018-05-15T10:37:50.449Z,968.05
2018-05-15T10:38:50.438Z,968.05
2018-05-15T10:39:50.433Z,968.08
2018-05-15T10:40:50.428Z,968.08
2018-05-15T10:41:50.412Z,968.07
2018-05-15T10:42:50.405Z,968.11
2018-05-15T10:43:50.478Z,968.14
2018-05-15T10:44:50.393Z,968.14
2018-05-15T10:45:50.385Z,968.19
2018-05-15T10:46:50.373Z,968.20
2018-05-15T10:47:50.365Z,968.20
2018-05-15T10:48:50.356Z,968.23
2018-05-15T10:49:50.353Z,968.27
2018-05-15T10:50:50.364Z,968.26
2018-05-15T10:51:50.333Z,968.24
2018-05-15T10:52:50.324Z,968.28
2018-05-15T10:53:50.321Z,968.30
2018-05-15T10:54:50.308Z,968.41
2018-05-15T10:55:50.301Z,968.40
2018-05-15T10:56:50.292Z,968.42
2018-05-15T10:57:50.278Z,968.44
2018-05-15T10:58:50.276Z,968.44
2018-05-15T10:59:50.266Z,968.47
2018-05-15T11:00:50.253Z,968.48
2018-05-15T11:01:50.246Z,968.53
2018-05-15T11:02:50.241Z,968.60
2018-05-15T11:03:50.228Z,968.62
2018-05-15T11:04:50.221Z,968.60
2018-05-15T11:05:50.213Z,968.52
2018-05-15T11:06:50.213Z,968.51
2018-05-15T11:07:50.195Z,968.51
2018-05-15T11:08:50.189Z,968.46
2018-05-15T11:09:50.175Z,968.42
2018-05-15T11:10:50.175Z,968.38
2018-05-15T11:11:50.176Z,968.38
2018-05-15T11:12:50.186Z,968.38
2018-05-15T11:13:50.141Z,968.29
2018-05-15T11:14:50.139Z,968.32
2018-05-15T11:15:50.126Z,968.32
2018-05-15T11:16:50.115Z,968.33
2018-05-15T11:17:50.105Z,968.33
2018-05-15T11:18:50.098Z,968.37
2018-05-15T11:19:50.095Z,968.43
2018-05-15T11:20:50.092Z,968.45
2018-05-15T11:21:50.080Z,968.43
2018-05-15T11:22:50.069Z,968.36
2018-05-15T11:23:50.058Z,968.36
2018-05-15T11:24:50.044Z,968.30
2018-05-15T11:25:50.032Z,968.31
2018-05-15T11:26:50.026Z,968.26
2018-05-15T11:27:50.016Z,968.15
2018-05-15T11:28:50.014Z,968.10
2018-05-15T11:29:50.004Z,967.97
2018-05-15T11:30:49.990Z,967.86
2018-05-15T11:31:49.985Z,967.93
2018-05-15T11:32:49.972Z,968.04
2018-05-15T11:33:49.964Z,968.11
2018-05-15T11:34:49.965Z,968.10
2018-05-15T11:35:49.949Z,968.09
2018-05-15T11:36:49.947Z,968.08
2018-05-15T11:37:49.932Z,968.05
2018-05-15T11:38:49.926Z,968.05
2018-05-15T11:39:49.916Z,968.04
2018-05-15T11:40:49.908Z,967.95
2018-05-15T11:41:49.992Z,967.95
2018-05-15T11:42:49.893Z,967.97
2018-05-15T11:43:49.882Z,967.90
2018-05-15T11:44:49.868Z,967.92
2018-05-15T11:45:49.865Z,967.90
2018-05-15T11:46:49.854Z,967.89
2018-05-15T11:47:50.357Z,967.90
2018-05-15T11:48:50.809Z,967.92
2018-05-15T11:49:50.741Z,967.91
2018-05-15T11:50:50.891Z,967.94
2018-05-15T11:51:50.701Z,967.93
2018-05-15T11:52:50.425Z,967.98
2018-05-15T11:53:49.853Z,968.01
2018-05-15T11:54:49.788Z,968.06
2018-05-15T11:55:49.816Z,968.07
2018-05-15T11:56:49.773Z,968.14
2018-05-15T11:57:49.791Z,968.12
2018-05-15T11:58:49.757Z,968.11
2018-05-15T11:59:49.759Z,968.11
2018-05-15T12:00:49.740Z,968.09
2018-05-15T12:01:49.727Z,968.08
2018-05-15T12:02:49.795Z,968.07
2018-05-15T12:03:49.790Z,968.06
2018-05-15T12:04:49.702Z,968.04
2018-05-15T12:05:49.693Z,968.04
2018-05-15T12:06:49.688Z,968.04
2018-05-15T12:07:49.679Z,968.01
2018-05-15T12:08:49.672Z,968.05
2018-05-15T12:09:49.669Z,968.02
2018-05-15T12:10:49.656Z,968.04
2018-05-15T12:11:49.649Z,968.05
2018-05-15T12:12:49.760Z,968.03
2018-05-15T12:13:49.643Z,968.03
2018-05-15T12:14:49.623Z,968.02
2018-05-15T12:15:49.615Z,968.02
2018-05-15T12:16:49.612Z,968.07
2018-05-15T12:17:49.601Z,968.04
2018-05-15T12:18:49.601Z,967.93
2018-05-15T12:19:49.587Z,967.90
2018-05-15T12:20:49.588Z,967.93
2018-05-15T12:21:49.579Z,967.87
2018-05-15T12:22:49.563Z,967.83
2018-05-15T12:23:49.557Z,967.86
2018-05-15T12:24:49.550Z,967.84
2018-05-15T12:25:49.543Z,967.83
2018-05-15T12:26:49.537Z,967.87
2018-05-15T12:27:49.527Z,967.84
2018-05-15T12:28:49.527Z,967.83
2018-05-15T12:29:49.557Z,967.89
2018-05-15T12:30:49.507Z,967.87
2018-05-15T12:31:49.504Z,967.88
2018-05-15T12:32:49.495Z,967.93
2018-05-15T12:33:49.483Z,967.93
2018-05-15T12:34:49.479Z,967.97
2018-05-15T12:35:49.530Z,968.01
2018-05-15T12:36:49.463Z,968.01
2018-05-15T12:37:49.457Z,968.03
2018-05-15T12:38:49.459Z,968.09
2018-05-15T12:39:49.450Z,968.13
2018-05-15T12:40:49.437Z,968.18
2018-05-15T12:41:49.531Z,968.24
2018-05-15T12:42:49.424Z,968.23
2018-05-15T12:43:49.425Z,968.20
2018-05-15T12:44:49.411Z,968.18
2018-05-15T12:45:49.407Z,968.11
2018-05-15T12:46:49.494Z,968.10
2018-05-15T12:47:49.431Z,968.10
2018-05-15T12:48:49.452Z,968.09
2018-05-15T12:49:49.383Z,968.08
2018-05-15T12:50:49.372Z,968.15
2018-05-15T12:51:49.371Z,968.09
2018-05-15T12:52:49.362Z,968.08
2018-05-15T12:53:49.353Z,968.08
2018-05-15T12:54:49.348Z,968.06
2018-05-15T12:55:49.343Z,968.04
2018-05-15T12:56:49.336Z,968.06
2018-05-15T12:57:49.331Z,968.02
2018-05-15T12:58:49.330Z,968.02
2018-05-15T12:59:49.327Z,967.98
2018-05-15T13:00:49.315Z,967.95
2018-05-15T13:01:49.326Z,968.05
2018-05-15T13:02:49.305Z,968.03
2018-05-15T13:03:49.302Z,968.03
2018-05-15T13:04:49.296Z,968.06
2018-05-15T13:05:49.305Z,968.06
2018-05-15T13:06:49.282Z,968.07
2018-05-15T13:07:49.282Z,968.07
2018-05-15T13:08:49.272Z,968.12
2018-05-15T13:09:49.268Z,968.14
2018-05-15T13:10:49.262Z,968.13
2018-05-15T13:11:49.263Z,968.18
2018-05-15T13:12:49.252Z,968.21
2018-05-15T13:13:49.248Z,968.24
2018-05-15T13:14:49.250Z,968.23
2018-05-15T13:15:49.238Z,968.23
2018-05-15T13:16:49.234Z,968.24
2018-05-15T13:17:49.229Z,968.24
2018-05-15T13:18:49.227Z,968.30
2018-05-15T13:19:49.225Z,968.34
2018-05-15T13:20:49.216Z,968.33
2018-05-15T13:21:49.209Z,968.34
2018-05-15T13:22:49.208Z,968.40
2018-05-15T13:23:49.199Z,968.41
2018-05-15T13:24:49.210Z,968.43
2018-05-15T13:25:49.197Z,968.43
2018-05-15T13:26:49.192Z,968.37
2018-05-15T13:27:49.180Z,968.34
2018-05-15T13:28:49.183Z,968.36
2018-05-15T13:29:49.201Z,968.38
2018-05-15T13:30:49.171Z,968.43
2018-05-15T13:31:49.167Z,968.45
2018-05-15T13:32:49.163Z,968.49
2018-05-15T13:33:49.156Z,968.49
2018-05-15T13:34:49.150Z,968.50
2018-05-15T13:35:49.156Z,968.52
2018-05-15T13:36:49.142Z,968.51
2018-05-15T13:37:49.145Z,968.46
2018-05-15T13:38:49.136Z,968.49
2018-05-15T13:39:49.136Z,968.45
2018-05-15T13:40:49.128Z,968.43
2018-05-15T13:41:49.122Z,968.40
2018-05-15T13:42:49.120Z,968.41
2018-05-15T13:43:49.120Z,968.42
2018-05-15T13:44:49.112Z,968.37
2018-05-15T13:45:49.111Z,968.35
2018-05-15T13:46:49.103Z,968.31
2018-05-15T13:47:49.101Z,968.31
2018-05-15T13:48:49.100Z,968.32
2018-05-15T13:49:49.095Z,968.40
2018-05-15T13:50:49.099Z,968.42
2018-05-15T13:51:49.085Z,968.50
2018-05-15T13:52:49.082Z,968.59
2018-05-15T13:53:49.077Z,968.59
2018-05-15T13:54:49.075Z,968.64
2018-05-15T13:55:49.073Z,968.66
2018-05-15T13:56:49.070Z,968.71
2018-05-15T13:57:49.060Z,968.71
2018-05-15T13:58:49.059Z,968.77
2018-05-15T13:59:49.053Z,968.79
2018-05-15T14:00:49.052Z,968.82
2018-05-15T14:01:49.042Z,968.81
2018-05-15T14:02:49.047Z,968.82
2018-05-15T14:03:49.036Z,968.85
2018-05-15T14:04:49.038Z,968.81
2018-05-15T14:05:49.027Z,968.77
2018-05-15T14:06:49.023Z,968.72
2018-05-15T14:07:49.017Z,968.77
2018-05-15T14:08:49.013Z,968.79
2018-05-15T14:09:49.007Z,968.75
2018-05-15T14:10:49.006Z,968.74
2018-05-15T14:11:49.000Z,968.64
2018-05-15T14:12:48.997Z,968.61
2018-05-15T14:13:48.990Z,968.57
2018-05-15T14:14:48.985Z,968.50
2018-05-15T14:15:48.980Z,968.48
2018-05-15T14:16:48.974Z,968.43
2018-05-15T14:17:48.975Z,968.39